Time;durP1;ratioP1;P1;durP2;ratioP2;P2;SDS_P1;SDS_P2;PMS_P1;PMS_P2;Temp;Humidity;BMP_temperature;BMP_pressure;BME280_temperature;BME280_humidity;BME280_pressure;Samples;Min_cycle;Max_cycle;Signal;HPM_P1;HPM_P2
2022/07/03 00:00:28;;;;;;;8.30;7.50;;;;;;;13.80;92.18;98499.37;106160;1284;24217;-92
2022/07/03 00:03:03;;;;;;;8.50;7.70;;;;;;;13.78;91.79;98499.33;106086;1284;22696;-92
2022/07/03 00:05:31;;;;;;;8.50;7.30;;;;;;;13.77;91.70;98495.93;105939;1284;22643;-92
2022/07/03 00:07:59;;;;;;;8.60;7.50;;;;;;;13.75;91.91;98486.96;105880;1284;23440;-93
2022/07/03 00:10:29;;;;;;;13.30;12.20;;;;;;;13.72;91.53;98482.60;105959;1284;22597;-93
2022/07/03 00:12:57;;;;;;;9.90;9.00;;;;;;;13.69;91.48;98481.36;105866;1284;22592;-92
2022/07/03 00:15:24;;;;;;;8.90;7.80;;;;;;;13.70;91.59;98482.55;105746;1284;22740;-92
2022/07/03 00:17:52;;;;;;;8.90;8.00;;;;;;;13.72;91.49;98486.02;105891;1284;23383;-92
2022/07/03 00:20:20;;;;;;;9.50;7.70;;;;;;;13.76;91.22;98483.59;105450;1286;25363;-90
2022/07/03 00:22:50;;;;;;;11.10;10.10;;;;;;;13.80;91.01;98482.36;105561;1286;22773;-92
2022/07/03 00:25:21;;;;;;;9.40;8.50;;;;;;;13.83;91.09;98480.79;105837;1284;22614;-90
2022/07/03 00:27:50;;;;;;;9.20;8.10;;;;;;;13.89;91.41;98479.88;105739;1284;24230;-91
2022/07/03 00:30:18;;;;;;;9.00;8.00;;;;;;;13.95;91.07;98478.41;105768;1284;22677;-92
2022/07/03 00:32:48;;;;;;;9.50;7.70;;;;;;;14.01;91.16;98478.04;105896;1284;25596;-92
2022/07/03 00:35:17;;;;;;;9.60;8.70;;;;;;;14.06;91.17;98474.61;105952;1284;22586;-91
2022/07/03 00:37:45;;;;;;;9.80;8.70;;;;;;;14.09;91.05;98471.79;106034;1284;22568;-93
2022/07/03 00:40:13;;;;;;;8.80;8.00;;;;;;;14.08;90.95;98466.36;105943;1284;24964;-93
2022/07/03 00:42:41;;;;;;;9.80;8.60;;;;;;;14.07;90.98;98464.21;105853;1283;22577;-91
2022/07/03 00:45:16;;;;;;;8.80;8.00;;;;;;;14.05;90.84;98464.08;106178;1284;22566;-92
2022/07/03 00:47:44;;;;;;;10.20;8.60;;;;;;;14.02;90.85;98458.11;107797;1284;22701;-88
2022/07/03 00:50:14;;;;;;;17.70;15.70;;;;;;;14.01;90.92;98454.58;108493;1284;24227;-90
2022/07/03 00:52:52;;;;;;;23.20;20.80;;;;;;;14.01;90.76;98448.23;107410;1284;22622;-90
2022/07/03 00:55:22;;;;;;;17.20;15.60;;;;;;;14.01;90.63;98447.74;106384;1283;22604;-91
2022/07/03 00:57:50;;;;;;;13.30;11.90;;;;;;;13.99;90.91;98447.58;105914;1284;25360;-90
2022/07/03 01:00:18;;;;;;;10.10;9.10;;;;;;;13.94;91.20;98445.63;105954;1284;22563;-92
2022/07/03 01:03:05;;;;;;;10.30;9.30;;;;;;;13.93;91.13;98446.26;106092;1284;22648;-91
2022/07/03 01:05:50;;;;;;;11.00;8.90;;;;;;;13.97;91.09;98444.43;106346;1284;24407;-91
2022/07/03 01:08:45;;;;;;;8.80;8.00;;;;;;;13.98;91.27;98440.98;106076;1284;23632;-92
2022/07/03 01:11:43;;;;;;;10.30;9.20;;;;;;;14.02;91.17;98438.67;106457;1284;22558;-93
2022/07/03 01:14:18;;;;;;;9.00;8.20;;;;;;;14.10;91.29;98444.73;106438;1284;22610;-91
2022/07/03 01:16:53;;;;;;;9.30;8.50;;;;;;;14.16;91.47;98448.24;106454;1284;22495;-93
2022/07/03 01:19:34;;;;;;;10.70;9.30;;;;;;;14.23;91.51;98441.73;106574;1284;22602;-90
2022/07/03 01:22:30;;;;;;;9.30;8.40;;;;;;;14.29;91.49;98441.38;106266;1284;22535;-89
2022/07/03 01:25:14;;;;;;;11.10;10.00;;;;;;;14.34;91.29;98440.83;106372;1287;22649;-93
2022/07/03 01:28:00;;;;;;;10.80;8.60;;;;;;;14.39;91.28;98438.94;106192;1284;23050;-91
2022/07/03 01:30:31;;;;;;;8.40;7.60;;;;;;;14.44;91.19;98439.85;106118;1284;25490;-93
2022/07/03 01:33:11;;;;;;;8.50;6.50;;;;;;;14.48;91.29;98442.06;105939;1284;22568;-90
2022/07/03 01:35:41;;;;;;;8.70;7.80;;;;;;;14.51;91.39;98440.70;106016;1284;22772;-90
2022/07/03 01:38:14;;;;;;;10.10;9.20;;;;;;;14.51;91.38;98438.48;106234;1284;22546;-90
2022/07/03 01:40:43;;;;;;;9.30;8.40;;;;;;;14.49;91.25;98437.92;106289;1284;22569;-91
2022/07/03 01:43:12;;;;;;;9.30;8.30;;;;;;;14.50;91.22;98432.54;106197;1284;22754;-90
2022/07/03 01:45:47;;;;;;;9.60;8.60;;;;;;;14.51;91.20;98429.88;106100;1284;22715;-91
2022/07/03 01:48:15;;;;;;;12.80;9.10;;;;;;;14.52;91.18;98423.95;105721;1286;23131;-91
2022/07/03 01:50:46;;;;;;;9.30;8.30;;;;;;;14.51;91.20;98422.71;105909;1284;22579;-92
2022/07/03 01:53:16;;;;;;;9.80;8.80;;;;;;;14.52;91.22;98420.04;105736;1284;257305;-92
2022/07/03 01:55:44;;;;;;;9.00;8.10;;;;;;;14.56;91.49;98417.98;105800;1284;22556;-90
2022/07/03 01:58:12;;;;;;;10.20;9.20;;;;;;;14.65;91.62;98411.36;105947;1284;24329;-92
2022/07/03 02:00:50;;;;;;;10.70;9.50;;;;;;;14.72;91.65;98410.39;105600;1284;22652;-90
2022/07/03 02:03:26;;;;;;;9.40;8.50;;;;;;;14.79;91.83;98410.03;105870;1284;25579;-92
2022/07/03 02:06:17;;;;;;;9.10;7.80;;;;;;;14.85;91.85;98408.71;105496;1284;25957;-91
2022/07/03 02:08:55;;;;;;;8.00;7.00;;;;;;;14.93;91.96;98407.70;105770;1284;22529;-93
2022/07/03 02:11:46;;;;;;;8.40;7.50;;;;;;;15.05;91.96;98407.79;105711;1284;24351;-92
2022/07/03 02:14:17;;;;;;;8.20;7.40;;;;;;;15.14;92.17;98408.58;105776;1284;24221;-92
2022/07/03 02:17:10;;;;;;;7.50;6.80;;;;;;;15.23;92.23;98413.13;105654;1284;22871;-92
2022/07/03 02:19:49;;;;;;;8.80;7.70;;;;;;;15.30;92.08;98416.94;105638;1284;22710;-87
2022/07/03 02:22:20;;;;;;;10.60;8.10;;;;;;;15.28;91.58;98416.39;105301;1287;22842;-93
2022/07/03 02:24:48;;;;;;;11.20;8.40;;;;;;;15.23;91.60;98415.14;105279;1286;22723;-92
2022/07/03 02:27:22;;;;;;;9.90;8.20;;;;;;;15.20;91.69;98411.98;105726;1284;22567;-90
2022/07/03 02:29:59;;;;;;;8.70;7.60;;;;;;;15.20;91.87;98411.27;105687;1284;24227;-91
2022/07/03 02:32:30;;;;;;;10.10;7.50;;;;;;;15.22;91.73;98413.80;105732;1284;22553;-91
2022/07/03 02:35:04;;;;;;;8.50;7.60;;;;;;;15.23;91.65;98404.89;105832;1284;22563;-91
2022/07/03 02:37:48;;;;;;;9.10;7.80;;;;;;;15.28;91.97;98404.58;105558;1286;22495;-91
2022/07/03 02:40:40;;;;;;;7.70;6.90;;;;;;;15.34;92.04;98395.98;105465;1284;22695;-92
2022/07/03 02:43:18;;;;;;;8.70;7.40;;;;;;;15.42;91.94;98397.64;105718;1284;22699;-94
2022/07/03 02:45:55;;;;;;;10.00;7.10;;;;;;;15.50;92.10;98400.33;105691;1284;23782;-91
2022/07/03 02:48:34;;;;;;;10.10;7.10;;;;;;;15.56;91.92;98400.67;105741;1283;22668;-92
2022/07/03 02:51:09;;;;;;;8.50;7.40;;;;;;;15.61;91.90;98393.97;105837;1284;22557;-92
2022/07/03 02:53:59;;;;;;;8.50;7.50;;;;;;;15.61;91.80;98391.35;105747;1284;24413;-92
2022/07/03 02:56:32;;;;;;;8.10;7.20;;;;;;;15.62;91.84;98394.05;105866;1284;25653;-91
2022/07/03 02:59:22;;;;;;;8.80;7.40;;;;;;;15.66;92.05;98394.83;105794;1284;22547;-91
2022/07/03 03:02:03;;;;;;;8.00;7.20;;;;;;;15.67;92.00;98390.73;105798;1284;24528;-90
2022/07/03 03:04:32;;;;;;;13.00;6.30;;;;;;;15.72;91.98;98391.41;105824;1284;24241;-93
2022/07/03 03:07:08;;;;;;;9.30;7.20;;;;;;;15.77;92.04;98390.86;105500;1284;24762;-90
2022/07/03 03:09:48;;;;;;;9.70;6.40;;;;;;;15.83;92.03;98393.07;105908;1284;22680;-92
2022/07/03 03:12:29;;;;;;;10.90;6.30;;;;;;;15.90;91.97;98393.90;105802;1284;22569;-92
2022/07/03 03:15:04;;;;;;;9.20;6.70;;;;;;;15.96;91.85;98391.58;105451;1287;22834;-93
2022/07/03 03:17:43;;;;;;;8.20;6.00;;;;;;;15.99;91.92;98387.08;105747;1284;22567;-91
2022/07/03 03:20:18;;;;;;;8.10;6.50;;;;;;;16.04;92.09;98383.80;105860;1284;24270;-90
2022/07/03 03:23:21;;;;;;;10.30;6.50;;;;;;;16.11;92.06;98382.38;105951;1284;22695;-93
2022/07/03 03:25:52;;;;;;;7.30;6.00;;;;;;;16.15;91.63;98382.52;105871;1284;24196;-90
2022/07/03 03:28:20;;;;;;;7.80;6.00;;;;;;;16.16;91.63;98381.45;105841;1284;24261;-91
2022/07/03 03:30:49;;;;;;;7.00;6.30;;;;;;;16.15;91.47;98384.27;106005;1284;22786;-93
2022/07/03 03:33:20;;;;;;;8.10;6.40;;;;;;;16.14;91.56;98375.85;106152;1283;25431;-92
2022/07/03 03:35:48;;;;;;;7.70;6.30;;;;;;;16.11;91.52;98378.60;106169;1284;22612;-90
2022/07/03 03:38:16;;;;;;;6.90;6.20;;;;;;;16.13;91.67;98376.41;106227;1284;22673;-91
2022/07/03 03:40:45;;;;;;;7.80;5.60;;;;;;;16.15;91.48;98380.07;106326;1284;22570;-90
2022/07/03 03:43:13;;;;;;;8.50;6.20;;;;;;;16.17;91.41;98380.22;106049;1284;22533;-93
2022/07/03 03:45:41;;;;;;;7.40;6.10;;;;;;;16.20;91.39;98380.61;106050;1284;23950;-92
2022/07/03 03:48:09;;;;;;;6.80;6.00;;;;;;;16.20;91.28;98381.23;106237;1284;22686;-90
2022/07/03 03:50:37;;;;;;;7.90;6.50;;;;;;;16.21;91.35;98378.14;106239;1284;22486;-94
2022/07/03 03:53:05;;;;;;;8.00;6.90;;;;;;;16.19;91.20;98378.85;106097;1284;24199;-93
2022/07/03 03:55:33;;;;;;;7.70;6.90;;;;;;;16.17;91.28;98377.82;106165;1284;22732;-93
2022/07/03 03:58:01;;;;;;;8.00;6.40;;;;;;;16.18;91.31;98375.99;106068;1284;22492;-93
2022/07/03 04:00:30;;;;;;;9.70;6.20;;;;;;;16.23;91.38;98376.05;106120;1283;23846;-91
2022/07/03 04:02:58;;;;;;;6.60;5.90;;;;;;;16.28;91.36;98385.77;106254;1284;24352;-93
2022/07/03 04:05:25;;;;;;;7.50;6.20;;;;;;;16.36;91.48;98383.59;106214;1284;22801;-90
2022/07/03 04:07:53;;;;;;;8.00;6.00;;;;;;;16.43;91.39;98384.83;106114;1284;22611;-92
2022/07/03 04:10:21;;;;;;;7.10;6.40;;;;;;;16.49;91.47;98384.67;106243;1284;22549;-93
2022/07/03 04:12:49;;;;;;;7.00;6.30;;;;;;;16.57;91.45;98384.39;106293;1284;22561;-90
2022/07/03 04:15:17;;;;;;;7.00;5.70;;;;;;;16.68;91.46;98390.21;105951;1284;23170;-93
2022/07/03 04:17:45;;;;;;;8.90;6.40;;;;;;;16.80;91.39;98394.27;106101;1284;22712;-94
2022/07/03 04:20:13;;;;;;;9.00;6.80;;;;;;;16.88;91.28;98397.41;106158;1284;25198;-94
2022/07/03 04:22:41;;;;;;;8.10;6.70;;;;;;;16.87;90.87;98399.44;106339;1284;22678;-92
2022/07/03 04:25:09;;;;;;;7.70;6.20;;;;;;;16.85;91.11;98404.59;106231;1284;25481;-89
2022/07/03 04:27:37;;;;;;;8.60;6.10;;;;;;;16.89;91.14;98401.73;106169;1284;22644;-92
2022/07/03 04:30:25;;;;;;;7.90;6.60;;;;;;;16.94;90.97;98393.45;106437;1284;24373;-92
2022/07/03 04:32:52;;;;;;;8.50;6.80;;;;;;;16.98;90.95;98387.14;106363;1284;23131;-93
2022/07/03 04:35:21;;;;;;;7.80;6.90;;;;;;;17.01;90.73;98381.59;106314;1284;22784;-91
2022/07/03 04:37:48;;;;;;;7.80;6.40;;;;;;;17.06;90.91;98375.38;106159;1284;25255;-93
2022/07/03 04:40:16;;;;;;;8.90;7.30;;;;;;;17.12;90.81;98368.01;106777;1284;22572;-93
2022/07/03 04:42:44;;;;;;;7.20;6.10;;;;;;;17.17;90.73;98362.23;106529;1284;22883;-89
2022/07/03 04:45:12;;;;;;;6.60;5.90;;;;;;;17.26;90.70;98362.23;106776;1284;25375;-93
2022/07/03 04:47:40;;;;;;;6.60;5.50;;;;;;;17.37;90.66;98362.67;106664;1284;25324;-92
2022/07/03 04:50:08;;;;;;;8.50;6.20;;;;;;;17.48;90.64;98360.67;106806;1284;22718;-92
2022/07/03 04:52:36;;;;;;;7.60;5.90;;;;;;;17.56;90.44;98355.96;106870;1284;22582;-92
2022/07/03 04:55:04;;;;;;;9.40;6.90;;;;;;;17.61;90.47;98353.90;106564;1284;24284;-88
2022/07/03 04:57:32;;;;;;;7.40;6.60;;;;;;;17.61;89.77;98352.59;106657;1284;25393;-92
2022/07/03 05:00:01;;;;;;;6.50;5.80;;;;;;;17.62;89.96;98353.30;106741;1284;25918;-90
2022/07/03 05:02:29;;;;;;;10.80;6.70;;;;;;;17.65;89.88;98354.21;106699;1284;22674;-89
2022/07/03 05:04:57;;;;;;;8.30;6.40;;;;;;;17.69;89.74;98356.93;106474;1284;24425;-93
2022/07/03 05:07:25;;;;;;;6.90;6.20;;;;;;;17.73;89.35;98354.40;105970;1286;25444;-91
2022/07/03 05:09:52;;;;;;;7.70;7.00;;;;;;;17.70;89.43;98353.67;106358;1284;25435;-92
2022/07/03 05:12:20;;;;;;;8.90;7.10;;;;;;;17.68;88.93;98351.42;106251;1284;22572;-93
2022/07/03 05:14:48;;;;;;;8.00;7.10;;;;;;;17.66;88.99;98352.44;106191;1284;24549;-95
2022/07/03 05:17:18;;;;;;;8.50;6.40;;;;;;;17.68;89.11;98354.86;106052;1284;23963;-92
2022/07/03 05:19:46;;;;;;;8.20;7.00;;;;;;;17.77;88.87;98354.96;106007;1284;23464;-91
2022/07/03 05:22:14;;;;;;;8.00;7.20;;;;;;;17.79;88.53;98352.08;105585;1284;22482;-92
2022/07/03 05:24:42;;;;;;;8.30;7.50;;;;;;;17.78;88.28;98352.73;105877;1284;22551;-92
2022/07/03 05:27:10;;;;;;;8.00;7.20;;;;;;;17.80;88.57;98354.43;105801;1284;22491;-92
2022/07/03 05:29:38;;;;;;;8.10;7.00;;;;;;;17.85;88.12;98357.43;105765;1284;22569;-92
2022/07/03 05:32:06;;;;;;;8.60;7.20;;;;;;;17.82;87.58;98359.83;105744;1284;25928;-92
2022/07/03 05:34:34;;;;;;;8.30;7.50;;;;;;;17.87;87.94;98361.33;105704;1284;22571;-91
2022/07/03 05:37:02;;;;;;;8.30;7.30;;;;;;;17.91;87.65;98364.91;105612;1284;24384;-93
2022/07/03 05:39:33;;;;;;;7.90;7.20;;;;;;;17.96;87.77;98369.98;105502;1284;23944;-90
2022/07/03 05:42:02;;;;;;;9.70;8.20;;;;;;;18.05;87.69;98377.92;105509;1284;22628;-92
2022/07/03 05:44:30;;;;;;;8.50;7.70;;;;;;;18.08;87.20;98377.35;105469;1284;24300;-91
2022/07/03 05:46:57;;;;;;;10.20;8.10;;;;;;;18.08;87.02;98377.54;105407;1285;22910;-91
2022/07/03 05:49:25;;;;;;;8.30;6.80;;;;;;;18.08;87.10;98381.91;105721;1284;22577;-89
2022/07/03 05:51:53;;;;;;;8.30;7.20;;;;;;;18.10;87.05;98380.98;106660;1283;22635;-90
2022/07/03 05:54:21;;;;;;;7.80;6.80;;;;;;;18.15;87.11;98384.89;105850;1284;22493;-90
2022/07/03 05:56:49;;;;;;;8.90;7.10;;;;;;;18.24;86.92;98384.56;105552;1284;22653;-93
2022/07/03 05:59:17;;;;;;;7.50;6.70;;;;;;;18.32;87.12;98381.04;105457;1284;22707;-92
2022/07/03 06:01:45;;;;;;;7.60;6.90;;;;;;;18.43;87.10;98378.67;105388;1284;24313;-91
2022/07/03 06:04:13;;;;;;;8.50;6.70;;;;;;;18.51;86.56;98376.98;105152;1284;25413;-92
2022/07/03 06:06:41;;;;;;;8.40;6.30;;;;;;;18.54;86.08;98375.13;105492;1284;24119;-90
2022/07/03 06:09:09;;;;;;;7.70;5.70;;;;;;;18.63;86.12;98376.36;105748;1284;25372;-90
2022/07/03 06:11:43;;;;;;;7.60;5.60;;;;;;;18.78;85.57;98379.70;105529;1284;25325;-92
2022/07/03 06:14:11;;;;;;;6.90;5.70;;;;;;;18.88;85.61;98380.79;105438;1285;23099;-89
2022/07/03 06:16:39;;;;;;;6.10;5.40;;;;;;;19.05;85.02;98380.16;105722;1283;22784;-89
2022/07/03 06:19:08;;;;;;;7.30;5.40;;;;;;;19.12;84.84;98374.81;105483;1284;22565;-92
2022/07/03 06:21:35;;;;;;;9.30;5.70;;;;;;;19.22;84.39;98373.34;105736;1284;24468;-91
2022/07/03 06:24:04;;;;;;;7.50;5.50;;;;;;;19.33;84.17;98375.38;105820;1284;24455;-92
2022/07/03 06:26:32;;;;;;;6.10;5.50;;;;;;;19.39;83.77;98372.19;105869;1284;22548;-93
2022/07/03 06:29:00;;;;;;;6.70;5.50;;;;;;;19.46;83.24;98364.69;105609;1286;25520;-92
2022/07/03 06:31:28;;;;;;;6.40;5.30;;;;;;;19.49;82.58;98361.58;106214;1284;22637;-93
2022/07/03 06:33:56;;;;;;;5.70;5.10;;;;;;;19.49;81.80;98363.83;106138;1284;24268;-92
2022/07/03 06:36:24;;;;;;;9.70;6.50;;;;;;;19.47;81.88;98360.28;106023;1284;25381;-90
2022/07/03 06:38:52;;;;;;;6.00;5.10;;;;;;;19.52;81.78;98359.46;105945;1285;23074;-92
2022/07/03 06:41:20;;;;;;;5.60;5.00;;;;;;;19.59;81.30;98359.58;105837;1285;22728;-94
2022/07/03 06:43:48;;;;;;;6.00;5.20;;;;;;;19.67;80.71;98360.79;105971;1286;25216;-95
2022/07/03 06:46:16;;;;;;;10.30;5.80;;;;;;;19.70;80.32;98358.91;105797;1284;22537;-92
2022/07/03 06:48:44;;;;;;;6.60;5.20;;;;;;;19.75;79.97;98358.27;105443;1284;22498;-89
2022/07/03 06:51:11;;;;;;;7.90;5.30;;;;;;;19.78;79.92;98359.06;106156;1284;22552;-91
2022/07/03 06:53:45;;;;;;;5.90;5.30;;;;;;;19.82;79.32;98356.96;108396;1283;22593;-89
2022/07/03 06:56:13;;;;;;;7.00;5.70;;;;;;;19.86;78.70;98350.83;107322;1283;22578;-92
2022/07/03 06:58:40;;;;;;;7.70;5.90;;;;;;;19.86;78.35;98352.88;106132;1284;25257;-90
2022/07/03 07:01:08;;;;;;;7.80;5.30;;;;;;;19.94;78.87;98348.55;105827;1284;22485;-92
2022/07/03 07:03:36;;;;;;;5.50;4.80;;;;;;;20.06;78.83;98344.44;105792;1284;25566;-94
2022/07/03 07:06:04;;;;;;;4.90;4.40;;;;;;;20.20;77.87;98342.54;105750;1284;22548;-91
2022/07/03 07:08:32;;;;;;;6.30;4.60;;;;;;;20.30;77.09;98336.74;105964;1284;25919;-91
2022/07/03 07:11:01;;;;;;;8.10;4.70;;;;;;;20.35;76.86;98339.41;105955;1284;24140;-92
2022/07/03 07:13:29;;;;;;;6.10;4.60;;;;;;;20.40;77.53;98332.16;105879;1284;22614;-90
2022/07/03 07:15:57;;;;;;;5.30;4.20;;;;;;;20.50;76.48;98325.85;105761;1285;24412;-93
2022/07/03 07:18:25;;;;;;;6.80;4.10;;;;;;;20.59;76.17;98319.75;105788;1284;25365;-93
2022/07/03 07:20:53;;;;;;;5.10;4.50;;;;;;;20.66;75.59;98319.05;105883;1284;22514;-92
2022/07/03 07:23:21;;;;;;;5.50;4.40;;;;;;;20.76;76.18;98317.11;106376;1284;23308;-91
2022/07/03 07:25:49;;;;;;;7.90;4.50;;;;;;;20.88;76.27;98314.94;106457;1284;24380;-89
2022/07/03 07:28:17;;;;;;;7.00;5.00;;;;;;;20.98;75.91;98315.56;106538;1284;24195;-93
2022/07/03 07:30:45;;;;;;;6.80;4.80;;;;;;;21.04;74.65;98314.38;106403;1284;26751;-92
2022/07/03 07:33:13;;;;;;;5.50;4.80;;;;;;;21.05;74.95;98312.81;106321;1284;22984;-91
2022/07/03 07:35:41;;;;;;;6.00;4.90;;;;;;;21.12;75.10;98313.23;106542;1284;22550;-91
2022/07/03 07:38:09;;;;;;;5.20;4.70;;;;;;;21.21;73.79;98310.52;106661;1284;22602;-91
2022/07/03 07:40:37;;;;;;;5.50;4.60;;;;;;;21.29;71.99;98316.30;107079;1284;22604;-93
2022/07/03 07:43:05;;;;;;;6.10;5.00;;;;;;;21.30;72.66;98314.77;106946;1284;22741;-93
2022/07/03 07:45:33;;;;;;;6.00;5.30;;;;;;;21.33;70.36;98313.52;107061;1284;22591;-93
2022/07/03 07:48:02;;;;;;;6.60;5.80;;;;;;;21.36;70.28;98316.65;107037;1284;25242;-92
2022/07/03 07:50:30;;;;;;;6.70;5.30;;;;;;;21.44;70.36;98318.37;107258;1284;22724;-92
2022/07/03 07:52:58;;;;;;;7.50;5.30;;;;;;;21.54;69.81;98315.28;107440;1284;22753;-93
2022/07/03 07:55:26;;;;;;;6.60;5.30;;;;;;;21.62;69.50;98317.72;107357;1284;23014;-94
2022/07/03 07:57:54;;;;;;;6.40;5.60;;;;;;;21.67;68.28;98319.00;107407;1284;22570;-93
2022/07/03 08:00:22;;;;;;;7.00;5.40;;;;;;;21.76;68.76;98318.93;107179;1284;22616;-93
2022/07/03 08:05:36;;;;;;;6.60;6.00;;;;;;;22.08;68.11;98313.48;108416;1284;23259;-87
2022/07/03 08:08:08;;;;;;;6.20;5.60;;;;;;;22.19;67.77;98310.49;108182;1284;24382;-92
2022/07/03 08:10:39;;;;;;;6.10;5.50;;;;;;;22.29;67.12;98316.24;107904;1284;24147;-90
2022/07/03 08:13:07;;;;;;;8.70;5.70;;;;;;;22.43;67.45;98316.09;108004;1284;23331;-91
2022/07/03 08:15:36;;;;;;;6.60;5.60;;;;;;;22.63;66.83;98314.13;107873;1284;22576;-92
2022/07/03 08:18:05;;;;;;;6.10;5.30;;;;;;;22.81;65.29;98313.08;107700;1284;22548;-88
2022/07/03 08:20:34;;;;;;;6.50;4.70;;;;;;;22.94;65.12;98313.42;107206;1284;22486;-91
2022/07/03 08:23:04;;;;;;;9.30;5.50;;;;;;;23.05;65.11;98313.05;107876;1284;25374;-91
2022/07/03 08:25:32;;;;;;;6.30;4.60;;;;;;;23.21;64.01;98315.95;107920;1282;24060;-93
2022/07/03 08:28:01;;;;;;;7.10;4.60;;;;;;;23.23;63.40;98314.32;107600;1284;22562;-91
2022/07/03 08:30:29;;;;;;;6.90;5.20;;;;;;;23.29;63.61;98311.41;108018;1284;22704;-93
2022/07/03 08:32:58;;;;;;;6.00;4.90;;;;;;;23.37;63.60;98310.02;107934;1283;22489;-89
2022/07/03 08:35:27;;;;;;;10.00;5.50;;;;;;;23.44;63.13;98310.52;108202;1283;22571;-93
2022/07/03 08:37:55;;;;;;;6.50;5.00;;;;;;;23.45;63.18;98310.44;108194;1284;22800;-93
2022/07/03 08:40:23;;;;;;;8.00;4.80;;;;;;;23.48;62.80;98308.82;108236;1284;22801;-92
2022/07/03 08:43:00;;;;;;;8.80;5.20;;;;;;;23.60;62.24;98307.48;107931;1284;22715;-90
2022/07/03 08:45:29;;;;;;;7.10;4.90;;;;;;;23.74;62.30;98302.24;108216;1284;22557;-94
2022/07/03 08:47:58;;;;;;;5.50;4.50;;;;;;;23.69;61.92;98304.05;108244;1284;23180;-92
2022/07/03 08:50:26;;;;;;;7.70;5.20;;;;;;;23.85;62.25;98305.34;107604;1284;22595;-93
2022/07/03 08:52:54;;;;;;;7.30;4.80;;;;;;;24.17;62.17;98302.37;107919;1284;22587;-90
2022/07/03 08:55:22;;;;;;;8.20;5.20;;;;;;;24.44;62.01;98301.44;107612;1283;22753;-91
2022/07/03 08:57:52;;;;;;;8.00;5.30;;;;;;;24.44;61.76;98299.94;107915;1284;22487;-93
2022/07/03 09:00:20;;;;;;;7.00;4.60;;;;;;;24.37;60.39;98302.77;108334;1284;22546;-92
2022/07/03 09:02:49;;;;;;;6.50;5.50;;;;;;;24.24;59.36;98299.75;108057;1284;23904;-93
2022/07/03 09:05:18;;;;;;;5.90;4.60;;;;;;;24.15;60.67;98302.25;107906;1284;22578;-92
2022/07/03 09:07:46;;;;;;;6.60;4.80;;;;;;;24.24;59.50;98303.29;107683;1284;22556;-92
2022/07/03 09:10:17;;;;;;;6.60;4.90;;;;;;;24.30;60.06;98306.09;107365;1284;25951;-91
2022/07/03 09:12:47;;;;;;;5.30;4.70;;;;;;;24.54;60.93;98302.30;107878;1284;24280;-90
2022/07/03 09:15:16;;;;;;;5.30;4.30;;;;;;;24.86;60.31;98295.84;107944;1284;22591;-91
2022/07/03 09:18:05;;;;;;;6.90;4.80;;;;;;;25.06;59.56;98298.88;107870;1284;22623;-91
2022/07/03 09:20:37;;;;;;;5.80;4.60;;;;;;;25.17;59.66;98298.81;107616;1284;22623;-93
2022/07/03 09:23:15;;;;;;;6.00;4.80;;;;;;;25.29;58.91;98302.89;107361;1284;22560;-90
2022/07/03 09:25:59;;;;;;;8.70;4.50;;;;;;;25.25;57.05;98308.08;107724;1284;22769;-93
2022/07/03 09:28:45;;;;;;;14.60;4.70;;;;;;;24.99;57.80;98307.50;108133;1284;22565;-93
2022/07/03 09:31:22;;;;;;;7.70;4.90;;;;;;;24.86;57.70;98303.09;108470;1275;22557;-91
2022/07/03 09:34:09;;;;;;;7.40;4.60;;;;;;;25.01;57.82;98299.56;108353;1283;23951;-92
2022/07/03 09:36:44;;;;;;;7.20;4.30;;;;;;;25.20;56.98;98296.15;108067;1284;22573;-91
2022/07/03 09:39:24;;;;;;;8.10;4.20;;;;;;;25.12;56.82;98297.51;108056;1284;24744;-93
2022/07/03 09:42:01;;;;;;;7.30;4.30;;;;;;;25.16;56.95;98294.48;107673;1284;22693;-92
2022/07/03 09:44:37;;;;;;;6.40;4.40;;;;;;;25.25;56.78;98293.96;107750;1284;24227;-91
2022/07/03 09:47:25;;;;;;;5.00;4.20;;;;;;;25.48;56.65;98289.81;107207;1284;22556;-91
2022/07/03 09:49:59;;;;;;;5.60;4.40;;;;;;;25.68;56.04;98287.98;107747;1283;22552;-92
2022/07/03 09:52:28;;;;;;;4.80;4.30;;;;;;;25.77;55.08;98284.86;107447;1284;24194;-92
2022/07/03 09:55:01;;;;;;;5.10;4.00;;;;;;;25.89;55.46;98287.59;107360;1284;23382;-94
2022/07/03 09:57:30;;;;;;;6.00;4.30;;;;;;;25.99;54.76;98283.83;107283;1284;23978;-91
2022/07/03 10:00:20;;;;;;;8.00;4.20;;;;;;;26.10;54.61;98277.68;107435;1283;24332;-94
2022/07/03 10:03:01;;;;;;;7.30;4.10;;;;;;;26.14;53.59;98268.93;107738;1284;22559;-94
2022/07/03 10:05:33;;;;;;;7.80;4.60;;;;;;;26.09;53.73;98270.51;107555;1284;24294;-91
2022/07/03 10:08:15;;;;;;;6.60;4.40;;;;;;;26.13;53.86;98274.05;107558;1284;24079;-92
2022/07/03 10:10:47;;;;;;;5.30;4.50;;;;;;;26.17;51.17;98274.85;108046;1283;22580;-93
2022/07/03 10:13:15;;;;;;;4.90;4.40;;;;;;;26.09;52.73;98281.87;108135;1284;24374;-90
2022/07/03 10:15:44;;;;;;;6.60;4.80;;;;;;;26.27;52.64;98273.35;107652;1284;22934;-94
2022/07/03 10:18:14;;;;;;;5.60;4.70;;;;;;;26.36;52.22;98271.39;107261;1284;22567;-94
2022/07/03 10:20:47;;;;;;;5.30;4.30;;;;;;;26.38;52.48;98273.83;107440;1284;22664;-93
2022/07/03 10:23:16;;;;;;;;;;;;;;;26.58;52.48;98273.05;107606;1284;22476;-89
2022/07/03 10:25:44;;;;;;;5.60;4.20;;;;;;;26.66;51.15;98273.92;108687;1284;22555;-84
2022/07/03 10:28:13;;;;;;;5.20;4.40;;;;;;;26.62;51.41;98268.80;108599;1284;22678;-91
2022/07/03 10:30:44;;;;;;;6.30;4.50;;;;;;;26.61;49.24;98264.77;108579;1284;22558;-93
2022/07/03 10:33:12;;;;;;;8.10;4.60;;;;;;;26.61;50.26;98264.69;108070;1282;22582;-89
2022/07/03 10:35:45;;;;;;;5.40;4.60;;;;;;;26.76;50.06;98258.89;107697;1282;25534;-92
2022/07/03 10:38:20;;;;;;;;;;;;;;;26.91;49.63;98256.97;107973;1282;23545;-93
2022/07/03 10:46:48;;;;;;;6.70;4.10;;;;;;;26.92;48.88;98249.06;108256;1282;24031;-92
2022/07/03 10:49:23;;;;;;;5.50;4.50;;;;;;;26.96;49.03;98244.87;107867;1282;22560;-92
2022/07/03 10:51:57;;;;;;;5.60;4.60;;;;;;;27.12;48.73;98241.73;107858;1282;22609;-91
2022/07/03 10:54:26;;;;;;;5.30;4.40;;;;;;;27.31;48.16;98237.50;107844;1282;25343;-89
2022/07/03 10:57:17;;;;;;;5.70;4.30;;;;;;;27.36;47.69;98234.08;107705;1282;22489;-93
2022/07/03 10:59:46;;;;;;;6.00;4.00;;;;;;;27.35;47.63;98231.86;107938;1282;22860;-93
2022/07/03 11:02:32;;;;;;;5.20;4.00;;;;;;;27.37;47.32;98228.14;107347;1282;25656;-91
2022/07/03 11:05:00;;;;;;;7.00;3.70;;;;;;;27.44;47.86;98223.77;107650;1282;22481;-91
2022/07/03 11:07:45;;;;;;;5.70;4.30;;;;;;;27.46;47.18;98220.66;108007;1282;25389;-90
2022/07/03 11:10:19;;;;;;;6.20;4.40;;;;;;;27.52;47.86;98216.52;108716;1281;22595;-92
2022/07/03 11:13:01;;;;;;;6.30;4.00;;;;;;;27.76;46.91;98215.98;108408;1282;22498;-95
2022/07/03 11:15:39;;;;;;;4.70;4.20;;;;;;;27.85;46.10;98218.23;107636;1282;23803;-91
2022/07/03 11:18:27;;;;;;;4.30;3.90;;;;;;;27.74;45.39;98218.52;107528;1282;23334;-89
2022/07/03 11:21:21;;;;;;;5.50;3.90;;;;;;;27.57;46.49;98221.71;107676;1282;25934;-92
2022/07/03 11:23:55;;;;;;;4.70;3.70;;;;;;;27.70;45.62;98227.16;108050;1282;22579;-89
2022/07/03 11:26:23;;;;;;;;;;;;;;;27.82;45.52;98216.59;107797;1282;23128;-92
2022/07/03 11:28:53;;;;;;;6.30;4.80;;;;;;;27.97;45.27;98215.61;107480;1282;22558;-91
2022/07/03 11:31:23;;;;;;;6.80;4.10;;;;;;;27.98;43.33;98218.07;107464;1282;22545;-92
2022/07/03 11:33:51;;;;;;;6.70;3.90;;;;;;;27.95;42.34;98217.84;107046;1282;22561;-90
2022/07/03 11:36:22;;;;;;;6.30;3.90;;;;;;;27.72;42.76;98213.47;106893;1282;24753;-92
2022/07/03 11:38:59;;;;;;;7.10;4.80;;;;;;;27.72;42.58;98210.31;108082;1282;23436;-90
2022/07/03 11:41:35;;;;;;;4.60;3.80;;;;;;;27.70;41.24;98209.05;107965;1282;22701;-93
2022/07/03 11:44:06;;;;;;;5.60;4.10;;;;;;;27.57;41.17;98205.81;107984;1282;22578;-91
2022/07/03 11:46:39;;;;;;;6.40;4.50;;;;;;;27.41;42.16;98209.55;107533;1282;24366;-93
2022/07/03 11:49:15;;;;;;;6.40;4.10;;;;;;;27.29;41.37;98211.96;107372;1282;22559;-91
2022/07/03 11:51:55;;;;;;;5.60;3.90;;;;;;;26.99;41.78;98210.56;107081;1282;22485;-92
2022/07/03 11:54:23;;;;;;;6.60;4.50;;;;;;;26.94;42.07;98206.70;108012;1282;22637;-94